sensor_id;sensor_type;location;lat;lon;timestamp;temperature;humidity
47174;DHT22;36730;49.036;9.094;2023-05-07T00:01:16;24.80;60.50
47174;DHT22;36730;49.036;9.094;2023-05-07T00:03:41;24.80;60.40
47174;DHT22;36730;49.036;9.094;2023-05-07T00:06:07;24.80;60.80
47174;DHT22;36730;49.036;9.094;2023-05-07T00:08:32;24.80;60.50
47174;DHT22;36730;49.036;9.094;2023-05-07T00:10:58;24.80;60.50
47174;DHT22;36730;49.036;9.094;2023-05-07T00:13:23;24.70;60.60
47174;DHT22;36730;49.036;9.094;2023-05-07T00:15:48;24.70;60.70
47174;DHT22;36730;49.036;9.094;2023-05-07T00:18:14;24.70;60.50
47174;DHT22;36730;49.036;9.094;2023-05-07T00:20:39;24.70;60.80
47174;DHT22;36730;49.036;9.094;2023-05-07T00:23:05;24.70;60.80
47174;DHT22;36730;49.036;9.094;2023-05-07T00:25:30;24.70;60.80
47174;DHT22;36730;49.036;9.094;2023-05-07T00:27:56;24.70;60.70
47174;DHT22;36730;49.036;9.094;2023-05-07T00:30:22;24.70;60.70
47174;DHT22;36730;49.036;9.094;2023-05-07T00:32:48;24.70;60.70
47174;DHT22;36730;49.036;9.094;2023-05-07T00:35:14;24.70;60.70
47174;DHT22;36730;49.036;9.094;2023-05-07T00:37:39;24.70;60.80
47174;DHT22;36730;49.036;9.094;2023-05-07T00:40:06;24.60;60.80
47174;DHT22;36730;49.036;9.094;2023-05-07T00:42:33;24.60;61.00
47174;DHT22;36730;49.036;9.094;2023-05-07T00:44:58;24.60;60.90
47174;DHT22;36730;49.036;9.094;2023-05-07T00:47:24;24.60;60.90
47174;DHT22;36730;49.036;9.094;2023-05-07T00:49:50;24.60;60.90
47174;DHT22;36730;49.036;9.094;2023-05-07T00:52:16;24.60;61.00
47174;DHT22;36730;49.036;9.094;2023-05-07T00:54:42;24.60;61.30
47174;DHT22;36730;49.036;9.094;2023-05-07T00:57:09;24.60;61.10
47174;DHT22;36730;49.036;9.094;2023-05-07T00:59:34;24.60;61.00
47174;DHT22;36730;49.036;9.094;2023-05-07T01:02:00;24.60;61.10
47174;DHT22;36730;49.036;9.094;2023-05-07T01:04:25;24.60;61.00
47174;DHT22;36730;49.036;9.094;2023-05-07T01:06:51;24.60;61.30
47174;DHT22;36730;49.036;9.094;2023-05-07T01:09:17;24.50;61.00
47174;DHT22;36730;49.036;9.094;2023-05-07T01:11:45;24.50;61.00
47174;DHT22;36730;49.036;9.094;2023-05-07T01:14:10;24.50;61.20
47174;DHT22;36730;49.036;9.094;2023-05-07T01:16:36;24.50;61.10
47174;DHT22;36730;49.036;9.094;2023-05-07T01:19:02;24.50;61.10
47174;DHT22;36730;49.036;9.094;2023-05-07T01:21:28;24.50;61.40
47174;DHT22;36730;49.036;9.094;2023-05-07T01:23:56;24.50;61.30
47174;DHT22;36730;49.036;9.094;2023-05-07T01:26:22;24.50;61.40
47174;DHT22;36730;49.036;9.094;2023-05-07T01:28:49;24.40;61.30
47174;DHT22;36730;49.036;9.094;2023-05-07T01:31:14;24.40;61.10
47174;DHT22;36730;49.036;9.094;2023-05-07T01:33:40;24.40;61.50
47174;DHT22;36730;49.036;9.094;2023-05-07T01:36:07;24.40;61.30
47174;DHT22;36730;49.036;9.094;2023-05-07T01:38:34;24.40;61.30
47174;DHT22;36730;49.036;9.094;2023-05-07T01:41:00;24.40;61.30
47174;DHT22;36730;49.036;9.094;2023-05-07T01:43:25;24.40;61.30
47174;DHT22;36730;49.036;9.094;2023-05-07T01:45:51;24.40;61.30
47174;DHT22;36730;49.036;9.094;2023-05-07T01:48:17;24.40;61.40
47174;DHT22;36730;49.036;9.094;2023-05-07T01:50:43;24.40;61.20
47174;DHT22;36730;49.036;9.094;2023-05-07T01:53:09;24.40;61.30
47174;DHT22;36730;49.036;9.094;2023-05-07T01:55:35;24.40;61.30
47174;DHT22;36730;49.036;9.094;2023-05-07T01:58:02;24.40;61.30
47174;DHT22;36730;49.036;9.094;2023-05-07T02:00:27;24.40;61.50
47174;DHT22;36730;49.036;9.094;2023-05-07T02:02:54;24.30;61.50
47174;DHT22;36730;49.036;9.094;2023-05-07T02:05:19;24.30;61.50
47174;DHT22;36730;49.036;9.094;2023-05-07T02:07:45;24.30;61.40
47174;DHT22;36730;49.036;9.094;2023-05-07T02:10:10;24.30;61.40
47174;DHT22;36730;49.036;9.094;2023-05-07T02:12:36;24.30;61.40
47174;DHT22;36730;49.036;9.094;2023-05-07T02:15:01;24.30;61.40
47174;DHT22;36730;49.036;9.094;2023-05-07T02:17:27;24.30;61.50
47174;DHT22;36730;49.036;9.094;2023-05-07T02:19:52;24.20;61.40
47174;DHT22;36730;49.036;9.094;2023-05-07T02:22:18;24.20;61.50
47174;DHT22;36730;49.036;9.094;2023-05-07T02:24:43;24.20;61.50
47174;DHT22;36730;49.036;9.094;2023-05-07T02:27:09;24.20;61.50
47174;DHT22;36730;49.036;9.094;2023-05-07T02:29:35;24.20;61.50
47174;DHT22;36730;49.036;9.094;2023-05-07T02:32:00;24.20;61.70
47174;DHT22;36730;49.036;9.094;2023-05-07T02:34:26;24.20;61.70
47174;DHT22;36730;49.036;9.094;2023-05-07T02:36:51;24.20;61.60
47174;DHT22;36730;49.036;9.094;2023-05-07T02:39:17;24.20;61.70
47174;DHT22;36730;49.036;9.094;2023-05-07T02:41:42;24.20;61.80
47174;DHT22;36730;49.036;9.094;2023-05-07T02:44:08;24.20;61.50
47174;DHT22;36730;49.036;9.094;2023-05-07T02:46:34;24.20;61.60
47174;DHT22;36730;49.036;9.094;2023-05-07T02:49:00;24.20;61.70
47174;DHT22;36730;49.036;9.094;2023-05-07T02:51:25;24.20;61.80
47174;DHT22;36730;49.036;9.094;2023-05-07T02:53:51;24.20;61.60
47174;DHT22;36730;49.036;9.094;2023-05-07T02:56:16;24.20;61.60
47174;DHT22;36730;49.036;9.094;2023-05-07T02:58:42;24.10;61.50
47174;DHT22;36730;49.036;9.094;2023-05-07T03:01:07;24.20;61.50
47174;DHT22;36730;49.036;9.094;2023-05-07T03:03:33;24.20;61.70
47174;DHT22;36730;49.036;9.094;2023-05-07T03:05:58;24.10;61.50
47174;DHT22;36730;49.036;9.094;2023-05-07T03:08:24;24.20;61.60
47174;DHT22;36730;49.036;9.094;2023-05-07T03:10:50;24.10;61.30
47174;DHT22;36730;49.036;9.094;2023-05-07T03:13:15;24.10;61.60
47174;DHT22;36730;49.036;9.094;2023-05-07T03:15:41;24.10;61.80
47174;DHT22;36730;49.036;9.094;2023-05-07T03:18:06;24.10;61.60
47174;DHT22;36730;49.036;9.094;2023-05-07T03:20:32;24.00;61.30
47174;DHT22;36730;49.036;9.094;2023-05-07T03:22:57;24.10;61.50
47174;DHT22;36730;49.036;9.094;2023-05-07T03:25:23;24.10;61.60
47174;DHT22;36730;49.036;9.094;2023-05-07T03:27:48;24.10;61.50
47174;DHT22;36730;49.036;9.094;2023-05-07T03:30:14;24.10;61.40
47174;DHT22;36730;49.036;9.094;2023-05-07T03:32:39;24.10;61.50
47174;DHT22;36730;49.036;9.094;2023-05-07T03:35:05;24.00;61.40
47174;DHT22;36730;49.036;9.094;2023-05-07T03:37:31;24.00;61.30
47174;DHT22;36730;49.036;9.094;2023-05-07T03:39:56;24.00;61.40
47174;DHT22;36730;49.036;9.094;2023-05-07T03:42:22;24.00;61.30
47174;DHT22;36730;49.036;9.094;2023-05-07T03:44:47;24.00;61.50
47174;DHT22;36730;49.036;9.094;2023-05-07T03:47:13;24.00;61.40
47174;DHT22;36730;49.036;9.094;2023-05-07T03:49:38;24.00;61.20
47174;DHT22;36730;49.036;9.094;2023-05-07T03:52:04;24.00;61.30
47174;DHT22;36730;49.036;9.094;2023-05-07T03:54:30;24.00;61.30
47174;DHT22;36730;49.036;9.094;2023-05-07T03:56:55;24.00;61.30
47174;DHT22;36730;49.036;9.094;2023-05-07T03:59:21;23.90;61.30
47174;DHT22;36730;49.036;9.094;2023-05-07T04:01:47;23.90;61.30
47174;DHT22;36730;49.036;9.094;2023-05-07T04:04:12;23.90;61.30
47174;DHT22;36730;49.036;9.094;2023-05-07T04:06:37;23.90;61.20
47174;DHT22;36730;49.036;9.094;2023-05-07T04:09:03;23.90;61.30
47174;DHT22;36730;49.036;9.094;2023-05-07T04:11:28;23.90;61.20
47174;DHT22;36730;49.036;9.094;2023-05-07T04:13:54;23.90;61.10
47174;DHT22;36730;49.036;9.094;2023-05-07T04:16:19;23.90;61.10
47174;DHT22;36730;49.036;9.094;2023-05-07T04:18:45;23.90;61.20
47174;DHT22;36730;49.036;9.094;2023-05-07T04:21:17;23.80;61.10
47174;DHT22;36730;49.036;9.094;2023-05-07T04:23:43;23.90;61.30
47174;DHT22;36730;49.036;9.094;2023-05-07T04:26:08;23.90;61.20
47174;DHT22;36730;49.036;9.094;2023-05-07T04:28:34;23.80;61.10
47174;DHT22;36730;49.036;9.094;2023-05-07T04:30:59;23.90;61.20
47174;DHT22;36730;49.036;9.094;2023-05-07T04:33:25;23.80;61.30
47174;DHT22;36730;49.036;9.094;2023-05-07T04:35:51;23.80;61.20
47174;DHT22;36730;49.036;9.094;2023-05-07T04:38:16;23.80;61.30
47174;DHT22;36730;49.036;9.094;2023-05-07T04:40:43;23.80;61.30
47174;DHT22;36730;49.036;9.094;2023-05-07T04:43:09;23.80;61.40
47174;DHT22;36730;49.036;9.094;2023-05-07T04:45:35;23.80;61.50
47174;DHT22;36730;49.036;9.094;2023-05-07T04:48:00;23.80;61.40
47174;DHT22;36730;49.036;9.094;2023-05-07T04:50:26;23.80;61.50
47174;DHT22;36730;49.036;9.094;2023-05-07T04:52:51;23.80;61.50
47174;DHT22;36730;49.036;9.094;2023-05-07T04:55:17;23.80;61.60
47174;DHT22;36730;49.036;9.094;2023-05-07T04:57:43;23.80;61.60
47174;DHT22;36730;49.036;9.094;2023-05-07T05:00:08;23.80;61.80
47174;DHT22;36730;49.036;9.094;2023-05-07T05:02:34;23.80;61.90
47174;DHT22;36730;49.036;9.094;2023-05-07T05:05:00;23.80;61.90
47174;DHT22;36730;49.036;9.094;2023-05-07T05:07:26;23.80;62.00
47174;DHT22;36730;49.036;9.094;2023-05-07T05:09:52;23.80;62.00
47174;DHT22;36730;49.036;9.094;2023-05-07T05:12:17;23.80;62.10
47174;DHT22;36730;49.036;9.094;2023-05-07T05:14:43;23.80;62.20
47174;DHT22;36730;49.036;9.094;2023-05-07T05:17:08;23.70;62.20
47174;DHT22;36730;49.036;9.094;2023-05-07T05:19:33;23.70;62.10
47174;DHT22;36730;49.036;9.094;2023-05-07T05:21:59;23.80;62.20
47174;DHT22;36730;49.036;9.094;2023-05-07T05:24:26;23.80;62.30
47174;DHT22;36730;49.036;9.094;2023-05-07T05:26:53;23.80;62.50
47174;DHT22;36730;49.036;9.094;2023-05-07T05:29:18;23.70;62.50
47174;DHT22;36730;49.036;9.094;2023-05-07T05:31:44;23.80;62.40
47174;DHT22;36730;49.036;9.094;2023-05-07T05:34:09;23.70;62.60
47174;DHT22;36730;49.036;9.094;2023-05-07T05:36:35;23.80;62.90
47174;DHT22;36730;49.036;9.094;2023-05-07T05:39:00;23.80;62.60
47174;DHT22;36730;49.036;9.094;2023-05-07T05:41:26;23.80;62.70
47174;DHT22;36730;49.036;9.094;2023-05-07T05:43:51;23.70;62.80
47174;DHT22;36730;49.036;9.094;2023-05-07T05:46:16;23.80;62.90
47174;DHT22;36730;49.036;9.094;2023-05-07T05:48:42;23.80;62.90
47174;DHT22;36730;49.036;9.094;2023-05-07T05:51:07;23.80;63.10
47174;DHT22;36730;49.036;9.094;2023-05-07T05:53:33;23.70;62.90
47174;DHT22;36730;49.036;9.094;2023-05-07T05:55:58;23.80;63.30
47174;DHT22;36730;49.036;9.094;2023-05-07T05:58:24;23.80;63.10
47174;DHT22;36730;49.036;9.094;2023-05-07T06:00:49;23.80;63.10
47174;DHT22;36730;49.036;9.094;2023-05-07T06:03:17;23.80;63.20
47174;DHT22;36730;49.036;9.094;2023-05-07T06:05:43;23.80;63.30
47174;DHT22;36730;49.036;9.094;2023-05-07T06:08:08;23.70;63.30
47174;DHT22;36730;49.036;9.094;2023-05-07T06:10:35;23.70;63.30
47174;DHT22;36730;49.036;9.094;2023-05-07T06:13:00;23.70;63.20
47174;DHT22;36730;49.036;9.094;2023-05-07T06:15:26;23.80;63.50
47174;DHT22;36730;49.036;9.094;2023-05-07T06:17:51;23.80;63.60
47174;DHT22;36730;49.036;9.094;2023-05-07T06:20:17;23.80;63.60
47174;DHT22;36730;49.036;9.094;2023-05-07T06:22:42;23.80;63.70
47174;DHT22;36730;49.036;9.094;2023-05-07T06:25:08;23.80;63.80
47174;DHT22;36730;49.036;9.094;2023-05-07T06:27:33;23.80;64.10
47174;DHT22;36730;49.036;9.094;2023-05-07T06:29:59;23.80;64.00
47174;DHT22;36730;49.036;9.094;2023-05-07T06:32:24;23.80;63.90
47174;DHT22;36730;49.036;9.094;2023-05-07T06:34:50;23.80;64.00
47174;DHT22;36730;49.036;9.094;2023-05-07T06:37:15;23.80;63.90
47174;DHT22;36730;49.036;9.094;2023-05-07T06:39:41;23.80;64.20
47174;DHT22;36730;49.036;9.094;2023-05-07T06:42:06;23.80;64.30
47174;DHT22;36730;49.036;9.094;2023-05-07T06:44:32;23.80;64.30
47174;DHT22;36730;49.036;9.094;2023-05-07T06:46:57;23.90;64.60
47174;DHT22;36730;49.036;9.094;2023-05-07T06:49:23;23.90;64.50
47174;DHT22;36730;49.036;9.094;2023-05-07T06:51:48;23.90;64.60
47174;DHT22;36730;49.036;9.094;2023-05-07T06:54:14;23.90;64.70
47174;DHT22;36730;49.036;9.094;2023-05-07T06:56:39;23.90;64.70
47174;DHT22;36730;49.036;9.094;2023-05-07T06:59:05;24.00;64.90
47174;DHT22;36730;49.036;9.094;2023-05-07T07:01:31;24.00;64.90
47174;DHT22;36730;49.036;9.094;2023-05-07T07:03:56;24.00;65.00
47174;DHT22;36730;49.036;9.094;2023-05-07T07:06:22;24.00;64.90
47174;DHT22;36730;49.036;9.094;2023-05-07T07:08:47;24.10;65.00
47174;DHT22;36730;49.036;9.094;2023-05-07T07:11:13;24.10;65.10
47174;DHT22;36730;49.036;9.094;2023-05-07T07:13:38;24.20;65.10
47174;DHT22;36730;49.036;9.094;2023-05-07T07:16:05;24.10;65.30
47174;DHT22;36730;49.036;9.094;2023-05-07T07:18:30;24.10;65.20
47174;DHT22;36730;49.036;9.094;2023-05-07T07:20:56;24.10;65.40
47174;DHT22;36730;49.036;9.094;2023-05-07T07:23:21;24.20;65.30
47174;DHT22;36730;49.036;9.094;2023-05-07T07:25:47;24.20;65.30
47174;DHT22;36730;49.036;9.094;2023-05-07T07:28:13;24.20;65.30
47174;DHT22;36730;49.036;9.094;2023-05-07T07:30:38;24.20;65.40
47174;DHT22;36730;49.036;9.094;2023-05-07T07:33:04;24.30;65.30
47174;DHT22;36730;49.036;9.094;2023-05-07T07:35:30;24.30;65.50
47174;DHT22;36730;49.036;9.094;2023-05-07T07:37:56;24.30;65.50
47174;DHT22;36730;49.036;9.094;2023-05-07T07:40:22;24.30;65.50
47174;DHT22;36730;49.036;9.094;2023-05-07T07:42:47;24.40;65.70
47174;DHT22;36730;49.036;9.094;2023-05-07T07:45:12;24.40;65.40
47174;DHT22;36730;49.036;9.094;2023-05-07T07:47:39;24.40;65.40
47174;DHT22;36730;49.036;9.094;2023-05-07T07:50:05;24.40;65.80
47174;DHT22;36730;49.036;9.094;2023-05-07T07:52:31;24.40;65.70
47174;DHT22;36730;49.036;9.094;2023-05-07T07:54:56;24.40;65.70
47174;DHT22;36730;49.036;9.094;2023-05-07T07:57:21;24.50;65.70
47174;DHT22;36730;49.036;9.094;2023-05-07T07:59:47;24.50;65.70
47174;DHT22;36730;49.036;9.094;2023-05-07T08:02:12;24.50;65.60
47174;DHT22;36730;49.036;9.094;2023-05-07T08:04:38;24.50;64.60
47174;DHT22;36730;49.036;9.094;2023-05-07T08:07:03;24.60;65.40
47174;DHT22;36730;49.036;9.094;2023-05-07T08:09:29;24.60;65.10
47174;DHT22;36730;49.036;9.094;2023-05-07T08:11:54;24.60;65.30
47174;DHT22;36730;49.036;9.094;2023-05-07T08:14:20;24.60;65.10
47174;DHT22;36730;49.036;9.094;2023-05-07T08:16:45;24.60;64.90
47174;DHT22;36730;49.036;9.094;2023-05-07T08:19:11;24.70;64.90
47174;DHT22;36730;49.036;9.094;2023-05-07T08:21:38;24.70;64.80
47174;DHT22;36730;49.036;9.094;2023-05-07T08:24:04;24.80;64.40
47174;DHT22;36730;49.036;9.094;2023-05-07T08:26:30;24.80;64.50
47174;DHT22;36730;49.036;9.094;2023-05-07T08:28:55;24.80;64.30
47174;DHT22;36730;49.036;9.094;2023-05-07T08:31:21;24.80;64.20
47174;DHT22;36730;49.036;9.094;2023-05-07T08:33:46;24.90;64.20
47174;DHT22;36730;49.036;9.094;2023-05-07T08:36:11;24.90;64.20
47174;DHT22;36730;49.036;9.094;2023-05-07T08:38:37;24.90;64.60
47174;DHT22;36730;49.036;9.094;2023-05-07T08:41:03;25.00;63.90
47174;DHT22;36730;49.036;9.094;2023-05-07T08:43:30;25.00;64.10
47174;DHT22;36730;49.036;9.094;2023-05-07T08:45:58;25.00;63.90
47174;DHT22;36730;49.036;9.094;2023-05-07T08:48:26;25.10;63.90
47174;DHT22;36730;49.036;9.094;2023-05-07T08:50:52;25.10;63.80
47174;DHT22;36730;49.036;9.094;2023-05-07T08:53:17;25.10;64.30
47174;DHT22;36730;49.036;9.094;2023-05-07T08:55:43;25.20;63.80
47174;DHT22;36730;49.036;9.094;2023-05-07T08:58:09;25.20;63.20
47174;DHT22;36730;49.036;9.094;2023-05-07T09:00:35;25.30;63.50
47174;DHT22;36730;49.036;9.094;2023-05-07T09:03:01;25.30;63.30
47174;DHT22;36730;49.036;9.094;2023-05-07T09:05:27;25.30;63.20
47174;DHT22;36730;49.036;9.094;2023-05-07T09:07:52;25.30;63.00
47174;DHT22;36730;49.036;9.094;2023-05-07T09:10:18;25.40;63.30
47174;DHT22;36730;49.036;9.094;2023-05-07T09:12:43;25.30;63.20
47174;DHT22;36730;49.036;9.094;2023-05-07T09:15:11;25.40;63.40
47174;DHT22;36730;49.036;9.094;2023-05-07T09:17:37;25.40;63.30
47174;DHT22;36730;49.036;9.094;2023-05-07T09:20:04;25.40;63.20
47174;DHT22;36730;49.036;9.094;2023-05-07T09:22:33;25.40;63.30
47174;DHT22;36730;49.036;9.094;2023-05-07T09:24:58;25.50;63.50
47174;DHT22;36730;49.036;9.094;2023-05-07T09:27:24;25.50;63.20
47174;DHT22;36730;49.036;9.094;2023-05-07T09:29:50;25.50;63.10
47174;DHT22;36730;49.036;9.094;2023-05-07T09:32:15;25.60;63.40
47174;DHT22;36730;49.036;9.094;2023-05-07T09:34:41;25.60;63.10
47174;DHT22;36730;49.036;9.094;2023-05-07T09:37:07;25.70;63.20
47174;DHT22;36730;49.036;9.094;2023-05-07T09:39:39;25.70;62.90
47174;DHT22;36730;49.036;9.094;2023-05-07T09:42:06;25.80;62.90
47174;DHT22;36730;49.036;9.094;2023-05-07T09:44:32;25.80;62.80
47174;DHT22;36730;49.036;9.094;2023-05-07T09:46:57;25.80;62.80
47174;DHT22;36730;49.036;9.094;2023-05-07T09:49:24;25.90;63.00
47174;DHT22;36730;49.036;9.094;2023-05-07T09:51:52;25.90;62.60
47174;DHT22;36730;49.036;9.094;2023-05-07T09:54:18;25.90;62.50
47174;DHT22;36730;49.036;9.094;2023-05-07T09:56:44;25.90;63.10
47174;DHT22;36730;49.036;9.094;2023-05-07T09:59:10;26.00;62.30
47174;DHT22;36730;49.036;9.094;2023-05-07T10:01:37;26.10;62.50
47174;DHT22;36730;49.036;9.094;2023-05-07T10:04:03;26.10;62.40
47174;DHT22;36730;49.036;9.094;2023-05-07T10:06:30;26.10;62.70
47174;DHT22;36730;49.036;9.094;2023-05-07T10:08:55;26.20;62.20
47174;DHT22;36730;49.036;9.094;2023-05-07T10:11:21;26.20;62.30
47174;DHT22;36730;49.036;9.094;2023-05-07T10:13:47;26.20;62.10
47174;DHT22;36730;49.036;9.094;2023-05-07T10:16:13;26.30;61.90
47174;DHT22;36730;49.036;9.094;2023-05-07T10:18:38;26.30;61.70
47174;DHT22;36730;49.036;9.094;2023-05-07T10:21:11;26.30;61.80
47174;DHT22;36730;49.036;9.094;2023-05-07T10:23:36;26.40;61.90
47174;DHT22;36730;49.036;9.094;2023-05-07T10:26:04;26.40;61.90
47174;DHT22;36730;49.036;9.094;2023-05-07T10:28:31;26.50;61.30
47174;DHT22;36730;49.036;9.094;2023-05-07T10:33:28;26.60;61.30
47174;DHT22;36730;49.036;9.094;2023-05-07T10:36:00;26.60;61.90
47174;DHT22;36730;49.036;9.094;2023-05-07T10:38:27;26.70;61.50
47174;DHT22;36730;49.036;9.094;2023-05-07T10:40:52;26.70;61.20
47174;DHT22;36730;49.036;9.094;2023-05-07T10:43:18;26.70;61.30
47174;DHT22;36730;49.036;9.094;2023-05-07T10:45:43;26.80;61.00
47174;DHT22;36730;49.036;9.094;2023-05-07T10:48:16;26.80;60.80
47174;DHT22;36730;49.036;9.094;2023-05-07T10:50:42;26.80;61.00
47174;DHT22;36730;49.036;9.094;2023-05-07T10:53:19;26.90;61.00
47174;DHT22;36730;49.036;9.094;2023-05-07T10:55:48;26.90;61.50
47174;DHT22;36730;49.036;9.094;2023-05-07T11:00:46;26.90;60.60
47174;DHT22;36730;49.036;9.094;2023-05-07T11:03:11;27.00;60.50
47174;DHT22;36730;49.036;9.094;2023-05-07T11:05:37;27.00;60.50
47174;DHT22;36730;49.036;9.094;2023-05-07T11:08:03;27.10;60.40
47174;DHT22;36730;49.036;9.094;2023-05-07T11:13:13;27.10;60.20
47174;DHT22;36730;49.036;9.094;2023-05-07T11:15:39;27.10;59.90
47174;DHT22;36730;49.036;9.094;2023-05-07T11:18:07;27.20;60.00
47174;DHT22;36730;49.036;9.094;2023-05-07T11:20:49;27.20;60.40
47174;DHT22;36730;49.036;9.094;2023-05-07T11:26:06;27.20;59.50
47174;DHT22;36730;49.036;9.094;2023-05-07T11:31:03;27.30;59.60
47174;DHT22;36730;49.036;9.094;2023-05-07T11:33:29;27.40;59.50
47174;DHT22;36730;49.036;9.094;2023-05-07T11:35:55;27.40;59.50
47174;DHT22;36730;49.036;9.094;2023-05-07T11:38:21;27.40;59.40
47174;DHT22;36730;49.036;9.094;2023-05-07T11:40:50;27.40;59.40
47174;DHT22;36730;49.036;9.094;2023-05-07T11:43:16;27.50;59.40
47174;DHT22;36730;49.036;9.094;2023-05-07T11:45:41;27.50;59.30
47174;DHT22;36730;49.036;9.094;2023-05-07T11:48:07;27.50;59.20
47174;DHT22;36730;49.036;9.094;2023-05-07T11:50:32;27.60;59.10
47174;DHT22;36730;49.036;9.094;2023-05-07T11:52:58;27.60;59.20
47174;DHT22;36730;49.036;9.094;2023-05-07T11:55:23;27.50;59.00
47174;DHT22;36730;49.036;9.094;2023-05-07T11:57:50;27.60;59.00
47174;DHT22;36730;49.036;9.094;2023-05-07T12:00:15;27.60;58.80
47174;DHT22;36730;49.036;9.094;2023-05-07T12:02:41;27.60;58.80
47174;DHT22;36730;49.036;9.094;2023-05-07T12:05:07;27.70;59.30
47174;DHT22;36730;49.036;9.094;2023-05-07T12:07:33;27.60;58.90
47174;DHT22;36730;49.036;9.094;2023-05-07T12:09:59;27.70;58.70
47174;DHT22;36730;49.036;9.094;2023-05-07T12:12:24;27.60;58.90
47174;DHT22;36730;49.036;9.094;2023-05-07T12:14:50;27.70;58.70
47174;DHT22;36730;49.036;9.094;2023-05-07T12:17:15;27.70;58.70
47174;DHT22;36730;49.036;9.094;2023-05-07T12:19:41;27.80;58.50
47174;DHT22;36730;49.036;9.094;2023-05-07T12:22:07;27.80;58.40
47174;DHT22;36730;49.036;9.094;2023-05-07T12:24:45;27.80;58.60
47174;DHT22;36730;49.036;9.094;2023-05-07T12:27:11;27.80;58.30
47174;DHT22;36730;49.036;9.094;2023-05-07T12:29:37;27.90;58.30
47174;DHT22;36730;49.036;9.094;2023-05-07T12:32:06;27.90;58.30
47174;DHT22;36730;49.036;9.094;2023-05-07T12:34:32;27.90;58.20
47174;DHT22;36730;49.036;9.094;2023-05-07T12:36:57;27.90;58.20
47174;DHT22;36730;49.036;9.094;2023-05-07T12:39:26;27.90;58.10
47174;DHT22;36730;49.036;9.094;2023-05-07T12:41:53;28.00;57.90
47174;DHT22;36730;49.036;9.094;2023-05-07T12:44:19;28.00;57.90
47174;DHT22;36730;49.036;9.094;2023-05-07T12:46:46;28.00;58.10
47174;DHT22;36730;49.036;9.094;2023-05-07T12:49:11;27.90;57.80
47174;DHT22;36730;49.036;9.094;2023-05-07T12:51:37;28.00;57.80
47174;DHT22;36730;49.036;9.094;2023-05-07T12:54:02;28.00;57.80
47174;DHT22;36730;49.036;9.094;2023-05-07T12:56:30;28.00;57.80
47174;DHT22;36730;49.036;9.094;2023-05-07T12:58:57;28.00;57.80
47174;DHT22;36730;49.036;9.094;2023-05-07T13:01:28;28.00;57.80
47174;DHT22;36730;49.036;9.094;2023-05-07T13:03:53;28.00;57.90
47174;DHT22;36730;49.036;9.094;2023-05-07T13:06:19;28.00;57.70
47174;DHT22;36730;49.036;9.094;2023-05-07T13:08:45;27.90;57.70
47174;DHT22;36730;49.036;9.094;2023-05-07T13:11:11;27.90;57.60
47174;DHT22;36730;49.036;9.094;2023-05-07T13:13:37;27.90;57.60
47174;DHT22;36730;49.036;9.094;2023-05-07T13:16:03;27.90;57.60
47174;DHT22;36730;49.036;9.094;2023-05-07T13:18:31;27.90;57.70
47174;DHT22;36730;49.036;9.094;2023-05-07T13:20:57;27.90;57.60
47174;DHT22;36730;49.036;9.094;2023-05-07T13:23:23;27.80;57.70
47174;DHT22;36730;49.036;9.094;2023-05-07T13:25:48;27.80;57.60
47174;DHT22;36730;49.036;9.094;2023-05-07T13:28:14;27.80;57.40
47174;DHT22;36730;49.036;9.094;2023-05-07T13:30:40;27.80;57.40
47174;DHT22;36730;49.036;9.094;2023-05-07T13:33:06;27.80;57.30
47174;DHT22;36730;49.036;9.094;2023-05-07T13:35:31;27.80;57.40
47174;DHT22;36730;49.036;9.094;2023-05-07T13:37:57;27.70;57.30
47174;DHT22;36730;49.036;9.094;2023-05-07T13:40:22;27.70;57.50
47174;DHT22;36730;49.036;9.094;2023-05-07T13:42:48;27.70;57.70
47174;DHT22;36730;49.036;9.094;2023-05-07T13:45:14;27.70;58.10
47174;DHT22;36730;49.036;9.094;2023-05-07T13:47:43;27.70;58.90
47174;DHT22;36730;49.036;9.094;2023-05-07T13:50:08;27.70;58.90
47174;DHT22;36730;49.036;9.094;2023-05-07T13:52:34;27.60;58.90
47174;DHT22;36730;49.036;9.094;2023-05-07T13:54:59;27.50;59.10
47174;DHT22;36730;49.036;9.094;2023-05-07T13:57:25;27.50;59.40
47174;DHT22;36730;49.036;9.094;2023-05-07T13:59:50;27.50;59.60
47174;DHT22;36730;49.036;9.094;2023-05-07T14:02:16;27.40;59.80
47174;DHT22;36730;49.036;9.094;2023-05-07T14:04:41;27.40;60.10
47174;DHT22;36730;49.036;9.094;2023-05-07T14:07:07;27.40;60.30
47174;DHT22;36730;49.036;9.094;2023-05-07T14:09:32;27.30;60.30
47174;DHT22;36730;49.036;9.094;2023-05-07T14:11:58;27.30;60.50
47174;DHT22;36730;49.036;9.094;2023-05-07T14:14:24;27.20;60.60
47174;DHT22;36730;49.036;9.094;2023-05-07T14:16:49;27.20;60.80
47174;DHT22;36730;49.036;9.094;2023-05-07T14:19:15;27.20;61.10
47174;DHT22;36730;49.036;9.094;2023-05-07T14:21:40;27.10;61.20
47174;DHT22;36730;49.036;9.094;2023-05-07T14:24:06;27.10;61.50
47174;DHT22;36730;49.036;9.094;2023-05-07T14:26:32;27.10;61.60
47174;DHT22;36730;49.036;9.094;2023-05-07T14:28:57;27.10;61.90
47174;DHT22;36730;49.036;9.094;2023-05-07T14:31:23;27.00;62.10
47174;DHT22;36730;49.036;9.094;2023-05-07T14:33:49;27.00;62.10
47174;DHT22;36730;49.036;9.094;2023-05-07T14:36:18;26.90;62.30
47174;DHT22;36730;49.036;9.094;2023-05-07T14:38:48;26.90;62.60
47174;DHT22;36730;49.036;9.094;2023-05-07T14:41:13;26.90;62.90
47174;DHT22;36730;49.036;9.094;2023-05-07T14:43:39;26.90;63.20
47174;DHT22;36730;49.036;9.094;2023-05-07T14:46:05;26.80;63.10
47174;DHT22;36730;49.036;9.094;2023-05-07T14:48:30;26.80;63.50
47174;DHT22;36730;49.036;9.094;2023-05-07T14:50:55;26.70;63.70
47174;DHT22;36730;49.036;9.094;2023-05-07T14:53:21;26.70;64.00
47174;DHT22;36730;49.036;9.094;2023-05-07T14:55:47;26.70;64.30
47174;DHT22;36730;49.036;9.094;2023-05-07T14:58:13;26.60;64.50
47174;DHT22;36730;49.036;9.094;2023-05-07T15:00:38;26.60;64.50
47174;DHT22;36730;49.036;9.094;2023-05-07T15:03:07;26.60;64.80
47174;DHT22;36730;49.036;9.094;2023-05-07T15:05:33;26.50;64.90
47174;DHT22;36730;49.036;9.094;2023-05-07T15:07:58;26.50;65.20
47174;DHT22;36730;49.036;9.094;2023-05-07T15:10:24;26.50;65.50
47174;DHT22;36730;49.036;9.094;2023-05-07T15:12:50;26.50;65.70
47174;DHT22;36730;49.036;9.094;2023-05-07T15:15:15;26.40;65.80
47174;DHT22;36730;49.036;9.094;2023-05-07T15:17:41;26.40;66.10
47174;DHT22;36730;49.036;9.094;2023-05-07T15:20:06;26.40;66.10
47174;DHT22;36730;49.036;9.094;2023-05-07T15:22:33;26.30;66.50
47174;DHT22;36730;49.036;9.094;2023-05-07T15:24:59;26.30;66.60
47174;DHT22;36730;49.036;9.094;2023-05-07T15:27:24;26.30;66.90
47174;DHT22;36730;49.036;9.094;2023-05-07T15:29:50;26.30;67.20
47174;DHT22;36730;49.036;9.094;2023-05-07T15:32:15;26.30;67.30
47174;DHT22;36730;49.036;9.094;2023-05-07T15:34:41;26.20;67.40